KGED/GED METAR and TAF weather

Enter ICAO airport designator
Station Type Date Time Source
KGED METAR 2024/04/15 08:54 UTC NOAA

KGED 150854Z AUTO 21003KT 10SM CLR 13/09 A2980 RMK AO2 SLP090 T01330094 55006


Station Type Date Time Source
KGED Decoded METAR 2024/04/15 08:54 UTC NOAA

GEORGETOWN SUSSEX CO AIRPORT , DE, United States (KGED) 38-41N 075-22W 19M
Apr 15, 2024 - 04:54 AM EDT / 2024.04.15 0854 UTC
Wind: from the SSW (210 degrees) at 3 MPH (3 KT):0
Visibility: 10 mile(s):0
Sky conditions: clear
Temperature: 55.9 F (13.3 C)
Dew Point: 48.9 F (9.4 C)
Relative Humidity: 77%
Pressure (altimeter): 29.8 in. Hg (1009 hPa)
Pressure tendency: 0.02 inches (0.6 hPa) lower than three hours ago
ob: KGED 150854Z AUTO 21003KT 10SM CLR 13/09 A2980 RMK AO2 SLP090 T01330094 55006
cycle: 9

Station Type Date Time Source
KGED TAF UTC NOAA

Error!

Example: see airport list